| time (UTC) | temp C | wind direction | speed KPH | gust KPH | rain 1hr cm | rain 24hr cm | rain mn cm | humidity % | barometer mb |
| 20260510161552 | 24 | 164 | 4.8 | 12.9 | 0.00 | 0.00 | 0.00 | 42 | 1015.1 |
| 20260510160049 | 23 | 0 | 1.6 | 12.9 | 0.00 | 0.00 | 0.00 | 45 | 1015.2 |
| 20260510154555 | 23 | 287 | 3.2 | 9.7 | 0.00 | 0.00 | 0.00 | 44 | 1015.2 |
| 20260510153050 | 23 | 225 | 3.2 | 12.9 | 0.00 | 0.00 | 0.00 | 43 | 1015.3 |
| 20260510151552 | 23 | 216 | 0.0 | 14.5 | 0.00 | 0.00 | 0.00 | 47 | 1015.3 |
| 20260510150114 | 23 | 0 | 1.6 | 11.3 | 0.00 | 0.00 | 0.00 | 46 | 1015.3 |
| 20260510144607 | 22 | 0 | 3.2 | 12.9 | 0.00 | 0.00 | 0.00 | 47 | 1015.2 |
| 20260510143056 | 22 | 237 | 1.6 | 9.7 | 0.00 | 0.00 | 0.00 | 47 | 1015.2 |
| 20260510141550 | 22 | 100 | 1.6 | 6.4 | 0.00 | 0.00 | 0.00 | 47 | 1015.1 |
| 20260510140050 | 22 | 271 | 3.2 | 9.7 | 0.00 | 0.00 | 0.00 | 50 | 1015.5 |
| 20260510134555 | 21 | 272 | 1.6 | 11.3 | 0.00 | 0.00 | 0.00 | 50 | 1015.5 |
| 20260510133049 | 21 | 0 | 1.6 | 11.3 | 0.00 | 0.00 | 0.00 | 53 | 1015.5 |
| 20260510131548 | 20 | 266 | 3.2 | 16.1 | 0.00 | 0.00 | 0.00 | 53 | 1015.3 |
| 20260510130050 | 19 | 217 | 3.2 | 14.5 | 0.00 | 0.00 | 0.00 | 56 | 1015.1 |
| 20260510124549 | 18 | 326 | 3.2 | 11.3 | 0.00 | 0.00 | 0.00 | 60 | 1015.0 |
| 20260510123048 | 16 | 0 | 0.0 | 4.8 | 0.00 | 0.00 | 0.00 | 70 | 1014.9 |
| 20260510121547 | 13 | 0 | 0.0 | 3.2 | 0.00 | 0.00 | 0.00 | 79 | 1014.7 |
| 20260510120048 | 12 | 0 | 0.0 | 0.0 | 0.00 | 0.00 | 0.00 | 83 | 1014.9 |
| 20260510114609 | 10 | 0 | 0.0 | 0.0 | 0.00 | 0.00 | 0.00 | 86 | 1014.6 |
| 20260510113056 | 10 | 0 | 0.0 | 0.0 | 0.00 | 0.00 | 0.00 | 88 | 1014.4 |
| 20260510111548 | 9 | 0 | 0.0 | 0.0 | 0.00 | 0.00 | 0.00 | 89 | 1014.2 |
| 20260510110047 | 8 | 0 | 0.0 | 0.0 | 0.00 | 0.00 | 0.00 | 89 | 1014.0 |
| 20260510104555 | 8 | 0 | 0.0 | 0.0 | 0.00 | 0.00 | 0.00 | 89 | 1013.8 |
| 20260510103051 | 8 | 0 | 0.0 | 0.0 | 0.00 | 0.00 | 0.00 | 89 | 1013.6 |
| 20260510101552 | 8 | 0 | 0.0 | 0.0 | 0.00 | 0.00 | 0.00 | 88 | 1013.4 |
| 20260510100101 | 8 | 0 | 0.0 | 1.6 | 0.00 | 0.00 | 0.00 | 87 | 1013.3 |
| 20260510094600 | 9 | 0 | 0.0 | 6.4 | 0.00 | 0.00 | 0.00 | 85 | 1013.3 |
| 20260510093053 | 9 | 0 | 0.0 | 3.2 | 0.00 | 0.00 | 0.00 | 87 | 1013.0 |
| 20260510091550 | 8 | 0 | 0.0 | 6.4 | 0.00 | 0.00 | 0.00 | 87 | 1012.9 |
| 20260510090053 | 8 | 0 | 0.0 | 0.0 | 0.00 | 0.00 | 0.00 | 86 | 1012.8 |
| 20260510084549 | 9 | 0 | 0.0 | 0.0 | 0.00 | 0.00 | 0.00 | 84 | 1012.8 |
| 20260510083054 | 10 | 0 | 0.0 | 0.0 | 0.00 | 0.00 | 0.00 | 83 | 1012.7 |
| 20260510081550 | 10 | 0 | 0.0 | 3.2 | 0.00 | 0.00 | 0.00 | 84 | 1012.7 |
| 20260510080050 | 9 | 0 | 0.0 | 0.0 | 0.00 | 0.00 | 0.00 | 86 | 1012.3 |
| 20260510074546 | 9 | 0 | 0.0 | 3.2 | 0.00 | 0.00 | 0.00 | 86 | 1012.0 |
| 20260510073049 | 8 | 0 | 0.0 | 0.0 | 0.00 | 0.00 | 0.00 | 86 | 1011.9 |
| 20260510071549 | 9 | 0 | 0.0 | 0.0 | 0.00 | 0.00 | 0.00 | 86 | 1011.9 |
| 20260510070107 | 9 | 0 | 0.0 | 0.0 | 0.00 | 0.00 | 0.00 | 85 | 1011.8 |
| 20260510064555 | 9 | 0 | 0.0 | 0.0 | 0.00 | 0.00 | 0.00 | 85 | 1011.8 |
| 20260510063045 | 9 | 0 | 0.0 | 0.0 | 0.00 | 0.00 | 0.00 | 84 | 1012.0 |
| 20260510061550 | 10 | 0 | 0.0 | 0.0 | 0.00 | 0.00 | 0.00 | 84 | 1012.0 |
| 20260510060051 | 10 | 0 | 0.0 | 0.0 | 0.00 | 0.00 | 0.00 | 83 | 1012.1 |
| 20260510054601 | 10 | 0 | 0.0 | 0.0 | 0.00 | 0.00 | 0.00 | 81 | 1012.2 |
| 20260510053048 | 10 | 0 | 0.0 | 0.0 | 0.00 | 0.00 | 0.00 | 81 | 1012.1 |
| 20260510051547 | 10 | 0 | 0.0 | 0.0 | 0.00 | 0.00 | 0.00 | 80 | 1012.1 |
| 20260510050051 | 10 | 0 | 0.0 | 0.0 | 0.00 | 0.00 | 0.00 | 80 | 1012.1 |
| 20260510044551 | 11 | 0 | 0.0 | 0.0 | 0.00 | 0.00 | 0.00 | 79 | 1012.3 |
| 20260510043050 | 11 | 0 | 0.0 | 0.0 | 0.00 | 0.00 | 0.00 | 78 | 1012.2 |
| 20260510041555 | 11 | 0 | 0.0 | 0.0 | 0.00 | 0.00 | 0.00 | 77 | 1012.2 |
| 20260510040052 | 11 | 0 | 0.0 | 0.0 | 0.00 | 0.00 | 0.00 | 76 | 1012.2 |
| 20260510034549 | 11 | 0 | 0.0 | 0.0 | 0.00 | 0.00 | 0.00 | 76 | 1012.3 |
| 20260510033107 | 12 | 0 | 0.0 | 0.0 | 0.00 | 0.00 | 0.00 | 74 | 1012.1 |
| 20260510031549 | 12 | 0 | 0.0 | 0.0 | 0.00 | 0.00 | 0.00 | 74 | 1012.0 |
| 20260510030049 | 12 | 0 | 0.0 | 0.0 | 0.00 | 0.00 | 0.00 | 74 | 1011.9 |
| 20260510024550 | 12 | 0 | 0.0 | 0.0 | 0.00 | 0.00 | 0.00 | 73 | 1011.8 |
| 20260510023048 | 12 | 0 | 0.0 | 0.0 | 0.00 | 0.00 | 0.00 | 72 | 1011.8 |
| 20260510021549 | 13 | 0 | 0.0 | 0.0 | 0.00 | 0.00 | 0.00 | 71 | 1011.5 |
| 20260510020049 | 13 | 0 | 0.0 | 0.0 | 0.00 | 0.00 | 0.00 | 70 | 1011.2 |
| 20260510014551 | 13 | 0 | 0.0 | 0.0 | 0.00 | 0.00 | 0.00 | 68 | 1011.2 |
| 20260510013048 | 14 | 0 | 0.0 | 0.0 | 0.00 | 0.00 | 0.00 | 66 | 1010.8 |
| 20260510011549 | 15 | 0 | 0.0 | 0.0 | 0.00 | 0.00 | 0.00 | 64 | 1010.5 |
| 20260510010059 | 15 | 0 | 0.0 | 0.0 | 0.00 | 0.00 | 0.00 | 62 | 1010.3 |
| 20260510004556 | 16 | 0 | 0.0 | 3.2 | 0.00 | 0.00 | 0.00 | 59 | 1010.1 |
| 20260510003058 | 17 | 0 | 0.0 | 0.0 | 0.00 | 0.00 | 0.00 | 57 | 1010.1 |
| 20260510001547 | 18 | 0 | 0.0 | 0.0 | 0.00 | 0.00 | 0.00 | 52 | 1010.1 |
| 20260510000057 | 20 | 0 | 0.0 | 4.8 | 0.00 | 0.00 | 0.00 | 50 | 1009.8 |
| 20260509234605 | 21 | 0 | 0.0 | 16.1 | 0.00 | 0.00 | 0.00 | 44 | 1009.5 |
| 20260509233049 | 22 | 0 | 0.0 | 3.2 | 0.00 | 0.00 | 0.00 | 43 | 1009.3 |
| 20260509231552 | 22 | 257 | 3.2 | 11.3 | 0.00 | 0.00 | 0.00 | 39 | 1009.3 |
| 20260509230047 | 22 | 274 | 3.2 | 12.9 | 0.00 | 0.00 | 0.00 | 39 | 1009.0 |
| 20260509224553 | 22 | 296 | 4.8 | 9.7 | 0.00 | 0.00 | 0.00 | 39 | 1009.0 |
| 20260509223057 | 22 | 282 | 0.0 | 11.3 | 0.00 | 0.00 | 0.00 | 42 | 1009.0 |
| 20260509221552 | 22 | 264 | 3.2 | 12.9 | 0.00 | 0.00 | 0.00 | 42 | 1009.0 |
| 20260509220059 | 22 | 0 | 0.0 | 9.7 | 0.00 | 0.00 | 0.00 | 43 | 1008.9 |
| 20260509214548 | 22 | 259 | 1.6 | 8.0 | 0.00 | 0.00 | 0.00 | 42 | 1008.8 |
| 20260509213050 | 23 | 0 | 3.2 | 14.5 | 0.00 | 0.00 | 0.00 | 40 | 1008.7 |
| 20260509211550 | 23 | 349 | 3.2 | 9.7 | 0.00 | 0.00 | 0.00 | 39 | 1008.5 |
| 20260509210051 | 23 | 281 | 3.2 | 14.5 | 0.00 | 0.00 | 0.00 | 37 | 1008.5 |
| 20260509204558 | 23 | 313 | 4.8 | 14.5 | 0.00 | 0.00 | 0.00 | 37 | 1008.3 |
| 20260509203052 | 23 | 0 | 3.2 | 16.1 | 0.00 | 0.00 | 0.00 | 39 | 1008.2 |
| 20260509201548 | 23 | 267 | 0.0 | 14.5 | 0.00 | 0.00 | 0.00 | 41 | 1008.3 |
| 20260509200054 | 23 | 278 | 3.2 | 12.9 | 0.00 | 0.00 | 0.00 | 40 | 1008.3 |
| 20260509194556 | 23 | 127 | 1.6 | 14.5 | 0.00 | 0.00 | 0.00 | 42 | 1008.3 |
| 20260509193047 | 23 | 266 | 4.8 | 16.1 | 0.00 | 0.00 | 0.00 | 40 | 1008.3 |
| 20260509191555 | 22 | 269 | 0.0 | 8.0 | 0.00 | 0.00 | 0.00 | 42 | 1008.4 |
| 20260509190052 | 23 | 248 | 3.2 | 14.5 | 0.00 | 0.00 | 0.00 | 39 | 1008.6 |
| 20260509184547 | 23 | 123 | 1.6 | 12.9 | 0.00 | 0.00 | 0.00 | 42 | 1008.5 |
| 20260509183049 | 22 | 243 | 1.6 | 6.4 | 0.00 | 0.00 | 0.00 | 43 | 1008.8 |
| 20260509181555 | 22 | 0 | 0.0 | 3.2 | 0.00 | 0.00 | 0.00 | 48 | 1009.0 |
| 20260509180049 | 22 | 139 | 3.2 | 9.7 | 0.00 | 0.00 | 0.00 | 47 | 1009.1 |
| 20260509174556 | 22 | 104 | 1.6 | 6.4 | 0.00 | 0.00 | 0.00 | 49 | 1009.3 |
| 20260509173059 | 21 | 278 | 1.6 | 8.0 | 0.00 | 0.00 | 0.00 | 51 | 1009.5 |
| 20260509171558 | 21 | 0 | 0.0 | 1.6 | 0.00 | 0.00 | 0.00 | 52 | 1009.6 |
| 20260509170055 | 20 | 0 | 1.6 | 4.8 | 0.00 | 0.00 | 0.00 | 56 | 1009.8 |
| 20260509164551 | 20 | 0 | 0.0 | 6.4 | 0.00 | 0.00 | 0.00 | 56 | 1010.0 |
| 20260509163055 | 21 | 148 | 1.6 | 6.4 | 0.00 | 0.00 | 0.00 | 55 | 1010.1 |